sensor_id;sensor_type;location;lat;lon;timestamp;pressure;altitude;pressure_sealevel;temperature;humidity
61906;BME280;47863;55.766;37.672;2023-01-31T00:01:25;97946.50;;;-1.76;89.91
61906;BME280;47863;55.766;37.672;2023-01-31T00:03:56;97949.25;;;-1.78;89.95
61906;BME280;47863;55.766;37.672;2023-01-31T00:06:27;97959.03;;;-1.80;90.26
61906;BME280;47863;55.766;37.672;2023-01-31T00:08:54;97933.59;;;-1.89;90.20
61906;BME280;47863;55.766;37.672;2023-01-31T00:11:24;97919.47;;;-1.88;89.85
61906;BME280;47863;55.766;37.672;2023-01-31T00:13:51;97949.94;;;-1.76;89.82
61906;BME280;47863;55.766;37.672;2023-01-31T00:16:17;97953.53;;;-1.77;89.93
61906;BME280;47863;55.766;37.672;2023-01-31T00:18:43;97954.81;;;-1.71;89.82
61906;BME280;47863;55.766;37.672;2023-01-31T00:23:38;97948.28;;;-1.77;89.68
61906;BME280;47863;55.766;37.672;2023-01-31T00:26:24;97948.16;;;-1.75;89.65
61906;BME280;47863;55.766;37.672;2023-01-31T00:28:53;97953.97;;;-1.72;89.45
61906;BME280;47863;55.766;37.672;2023-01-31T00:31:20;97963.66;;;-1.72;89.15
61906;BME280;47863;55.766;37.672;2023-01-31T00:33:47;97962.00;;;-1.73;88.86
61906;BME280;47863;55.766;37.672;2023-01-31T00:36:18;97960.19;;;-1.73;89.06
61906;BME280;47863;55.766;37.672;2023-01-31T00:38:47;97956.03;;;-1.75;88.85
61906;BME280;47863;55.766;37.672;2023-01-31T00:41:13;97935.56;;;-1.82;88.93
61906;BME280;47863;55.766;37.672;2023-01-31T00:43:39;97953.16;;;-1.72;88.94
61906;BME280;47863;55.766;37.672;2023-01-31T00:46:05;97941.69;;;-1.71;88.51
61906;BME280;47863;55.766;37.672;2023-01-31T00:48:31;97961.03;;;-1.72;88.51
61906;BME280;47863;55.766;37.672;2023-01-31T00:50:56;97901.56;;;-2.04;88.86
61906;BME280;47863;55.766;37.672;2023-01-31T00:53:22;97964.34;;;-1.70;88.92
61906;BME280;47863;55.766;37.672;2023-01-31T00:56:00;97954.25;;;-1.75;88.62
61906;BME280;47863;55.766;37.672;2023-01-31T00:58:26;97958.66;;;-1.75;88.89
61906;BME280;47863;55.766;37.672;2023-01-31T01:00:52;97968.13;;;-1.63;88.69
61906;BME280;47863;55.766;37.672;2023-01-31T01:03:17;97955.84;;;-1.63;88.32
61906;BME280;47863;55.766;37.672;2023-01-31T01:05:43;97956.09;;;-1.66;88.33
61906;BME280;47863;55.766;37.672;2023-01-31T01:08:08;97960.38;;;-1.65;88.29
61906;BME280;47863;55.766;37.672;2023-01-31T01:10:34;97965.00;;;-1.57;88.32
61906;BME280;47863;55.766;37.672;2023-01-31T01:13:00;97946.94;;;-1.71;87.67
61906;BME280;47863;55.766;37.672;2023-01-31T01:15:25;97935.56;;;-1.82;87.98
61906;BME280;47863;55.766;37.672;2023-01-31T01:17:51;97964.03;;;-1.56;87.97
61906;BME280;47863;55.766;37.672;2023-01-31T01:20:17;97967.38;;;-1.54;88.00
61906;BME280;47863;55.766;37.672;2023-01-31T01:22:44;97928.25;;;-1.78;88.04
61906;BME280;47863;55.766;37.672;2023-01-31T01:25:09;97968.84;;;-1.61;87.64
61906;BME280;47863;55.766;37.672;2023-01-31T01:27:35;97971.66;;;-1.53;87.85
61906;BME280;47863;55.766;37.672;2023-01-31T01:30:01;97980.22;;;-1.51;87.81
61906;BME280;47863;55.766;37.672;2023-01-31T01:32:29;97988.94;;;-1.50;88.17
61906;BME280;47863;55.766;37.672;2023-01-31T01:34:54;97976.66;;;-1.50;87.75
61906;BME280;47863;55.766;37.672;2023-01-31T01:37:20;97962.38;;;-1.57;87.37
61906;BME280;47863;55.766;37.672;2023-01-31T01:39:47;97969.28;;;-1.56;87.78
61906;BME280;47863;55.766;37.672;2023-01-31T01:42:15;97955.00;;;-1.63;87.51
61906;BME280;47863;55.766;37.672;2023-01-31T01:49:47;97982.16;;;-1.53;87.56
61906;BME280;47863;55.766;37.672;2023-01-31T01:52:14;97989.44;;;-1.56;87.72
61906;BME280;47863;55.766;37.672;2023-01-31T01:54:49;97969.28;;;-1.56;87.60
61906;BME280;47863;55.766;37.672;2023-01-31T01:57:24;97970.41;;;-1.49;87.34
61906;BME280;47863;55.766;37.672;2023-01-31T02:00:07;97941.47;;;-1.58;87.07
61906;BME280;47863;55.766;37.672;2023-01-31T02:02:34;97933.38;;;-1.76;87.18
61906;BME280;47863;55.766;37.672;2023-01-31T02:05:01;97910.38;;;-1.84;87.29
61906;BME280;47863;55.766;37.672;2023-01-31T02:07:29;97966.28;;;-1.51;87.15
61906;BME280;47863;55.766;37.672;2023-01-31T02:10:05;97965.28;;;-1.50;86.86
61906;BME280;47863;55.766;37.672;2023-01-31T02:12:34;97962.81;;;-1.52;87.04
61906;BME280;47863;55.766;37.672;2023-01-31T02:15:01;97923.97;;;-1.79;87.03
61906;BME280;47863;55.766;37.672;2023-01-31T02:17:26;97946.16;;;-1.62;86.88
61906;BME280;47863;55.766;37.672;2023-01-31T02:23:36;97956.00;;;-1.54;86.95
61906;BME280;47863;55.766;37.672;2023-01-31T02:26:20;97950.47;;;-1.61;87.21
61906;BME280;47863;55.766;37.672;2023-01-31T02:42:50;97961.13;;;-1.53;86.63
61906;BME280;47863;55.766;37.672;2023-01-31T02:45:24;97952.44;;;-1.53;86.62
61906;BME280;47863;55.766;37.672;2023-01-31T02:51:12;97964.47;;;-1.51;86.68
61906;BME280;47863;55.766;37.672;2023-01-31T02:53:58;97960.91;;;-1.50;86.49
61906;BME280;47863;55.766;37.672;2023-01-31T02:56:31;97944.09;;;-1.58;86.63
61906;BME280;47863;55.766;37.672;2023-01-31T02:59:03;97960.91;;;-1.50;86.78
61906;BME280;47863;55.766;37.672;2023-01-31T03:01:39;97968.50;;;-1.47;86.21
61906;BME280;47863;55.766;37.672;2023-01-31T03:04:08;97953.38;;;-1.54;86.43
61906;BME280;47863;55.766;37.672;2023-01-31T03:11:43;97959.78;;;-1.47;86.56
61906;BME280;47863;55.766;37.672;2023-01-31T03:14:26;97934.53;;;-1.69;86.61
61906;BME280;47863;55.766;37.672;2023-01-31T03:17:11;97959.50;;;-1.54;86.61
61906;BME280;47863;55.766;37.672;2023-01-31T03:22:54;97862.72;;;-2.10;86.48
61906;BME280;47863;55.766;37.672;2023-01-31T03:25:24;97973.09;;;-1.39;86.10
61906;BME280;47863;55.766;37.672;2023-01-31T03:27:55;97979.19;;;-1.38;86.11
61906;BME280;47863;55.766;37.672;2023-01-31T03:30:47;97985.13;;;-1.36;85.77
61906;BME280;47863;55.766;37.672;2023-01-31T03:35:56;97986.34;;;-1.41;86.48
61906;BME280;47863;55.766;37.672;2023-01-31T03:38:33;97993.00;;;-1.36;86.22
61906;BME280;47863;55.766;37.672;2023-01-31T03:41:26;97879.88;;;-2.06;86.18
61906;BME280;47863;55.766;37.672;2023-01-31T03:44:00;97985.59;;;-1.31;86.08
61906;BME280;47863;55.766;37.672;2023-01-31T03:46:42;97951.34;;;-1.51;86.10
61906;BME280;47863;55.766;37.672;2023-01-31T03:49:11;97990.84;;;-1.31;85.98
61906;BME280;47863;55.766;37.672;2023-01-31T03:51:42;97980.97;;;-1.39;86.44
61906;BME280;47863;55.766;37.672;2023-01-31T03:54:16;97991.78;;;-1.32;86.43
61906;BME280;47863;55.766;37.672;2023-01-31T03:56:47;97998.59;;;-1.30;86.27
61906;BME280;47863;55.766;37.672;2023-01-31T03:59:19;97997.63;;;-1.29;86.18
61906;BME280;47863;55.766;37.672;2023-01-31T04:01:48;97989.50;;;-1.26;86.42
61906;BME280;47863;55.766;37.672;2023-01-31T04:04:37;97993.91;;;-1.26;86.16
61906;BME280;47863;55.766;37.672;2023-01-31T04:07:04;97990.00;;;-1.32;86.10
61906;BME280;47863;55.766;37.672;2023-01-31T04:09:31;98016.34;;;-1.22;85.97
61906;BME280;47863;55.766;37.672;2023-01-31T04:12:01;97948.28;;;-1.56;85.64
61906;BME280;47863;55.766;37.672;2023-01-31T04:14:27;98002.75;;;-1.27;86.15
61906;BME280;47863;55.766;37.672;2023-01-31T04:16:53;98010.63;;;-1.27;86.05
61906;BME280;47863;55.766;37.672;2023-01-31T04:19:18;97994.28;;;-1.31;86.00
61906;BME280;47863;55.766;37.672;2023-01-31T04:21:44;98010.50;;;-1.26;86.19
61906;BME280;47863;55.766;37.672;2023-01-31T04:24:10;98005.97;;;-1.24;86.05
61906;BME280;47863;55.766;37.672;2023-01-31T04:26:36;98007.47;;;-1.21;86.06
61906;BME280;47863;55.766;37.672;2023-01-31T04:29:02;98018.00;;;-1.21;86.10
61906;BME280;47863;55.766;37.672;2023-01-31T04:31:27;97884.72;;;-2.02;86.35
61906;BME280;47863;55.766;37.672;2023-01-31T04:33:53;98010.22;;;-1.23;86.14
61906;BME280;47863;55.766;37.672;2023-01-31T04:36:18;97993.66;;;-1.23;86.23
61906;BME280;47863;55.766;37.672;2023-01-31T04:38:44;98025.22;;;-1.13;85.65
61906;BME280;47863;55.766;37.672;2023-01-31T04:41:09;97992.78;;;-1.33;85.64
61906;BME280;47863;55.766;37.672;2023-01-31T04:43:35;97998.59;;;-1.30;85.82
61906;BME280;47863;55.766;37.672;2023-01-31T04:46:01;98021.78;;;-1.14;85.87
61906;BME280;47863;55.766;37.672;2023-01-31T04:48:26;97998.03;;;-1.33;86.07
61906;BME280;47863;55.766;37.672;2023-01-31T04:50:52;98024.13;;;-1.11;85.85
61906;BME280;47863;55.766;37.672;2023-01-31T04:53:17;97983.03;;;-1.43;86.26
61906;BME280;47863;55.766;37.672;2023-01-31T04:55:43;98020.25;;;-1.16;86.12
61906;BME280;47863;55.766;37.672;2023-01-31T04:58:09;98034.91;;;-1.14;86.00
61906;BME280;47863;55.766;37.672;2023-01-31T05:00:34;98046.28;;;-1.04;85.94
61906;BME280;47863;55.766;37.672;2023-01-31T05:03:00;98049.91;;;-1.05;85.55
61906;BME280;47863;55.766;37.672;2023-01-31T05:05:26;98030.78;;;-1.07;85.74
61906;BME280;47863;55.766;37.672;2023-01-31T05:07:52;98045.59;;;-1.06;85.83
61906;BME280;47863;55.766;37.672;2023-01-31T05:10:17;98038.66;;;-1.07;85.87
61906;BME280;47863;55.766;37.672;2023-01-31T05:12:43;98024.41;;;-1.14;85.55
61906;BME280;47863;55.766;37.672;2023-01-31T05:15:09;98016.19;;;-1.21;85.64
61906;BME280;47863;55.766;37.672;2023-01-31T05:17:36;98000.78;;;-1.35;85.60
61906;BME280;47863;55.766;37.672;2023-01-31T05:20:02;98038.66;;;-1.07;86.02
61906;BME280;47863;55.766;37.672;2023-01-31T05:22:29;98013.97;;;-1.25;85.93
61906;BME280;47863;55.766;37.672;2023-01-31T05:24:55;98047.53;;;-1.08;86.23
61906;BME280;47863;55.766;37.672;2023-01-31T05:27:21;98055.16;;;-1.05;86.22
61906;BME280;47863;55.766;37.672;2023-01-31T05:29:46;98044.66;;;-1.05;86.11
61906;BME280;47863;55.766;37.672;2023-01-31T05:32:14;98045.72;;;-1.07;86.01
61906;BME280;47863;55.766;37.672;2023-01-31T05:34:40;98047.91;;;-1.12;86.30
61906;BME280;47863;55.766;37.672;2023-01-31T05:37:06;98050.41;;;-1.11;86.15
61906;BME280;47863;55.766;37.672;2023-01-31T05:39:31;98036.56;;;-1.13;86.57
61906;BME280;47863;55.766;37.672;2023-01-31T05:41:57;98021.59;;;-1.22;86.48
61906;BME280;47863;55.766;37.672;2023-01-31T05:44:23;98016.75;;;-1.17;85.92
61906;BME280;47863;55.766;37.672;2023-01-31T05:46:48;98057.09;;;-0.97;85.93
61906;BME280;47863;55.766;37.672;2023-01-31T05:49:15;98045.06;;;-1.00;86.10
61906;BME280;47863;55.766;37.672;2023-01-31T05:51:41;98037.91;;;-1.18;85.97
61906;BME280;47863;55.766;37.672;2023-01-31T05:54:09;98045.59;;;-1.06;86.19
61906;BME280;47863;55.766;37.672;2023-01-31T05:56:34;98060.84;;;-1.00;86.11
61906;BME280;47863;55.766;37.672;2023-01-31T05:59:00;98034.22;;;-1.16;86.13
61906;BME280;47863;55.766;37.672;2023-01-31T06:01:28;98069.53;;;-0.99;86.23
61906;BME280;47863;55.766;37.672;2023-01-31T06:03:54;98057.25;;;-0.98;86.27
61906;BME280;47863;55.766;37.672;2023-01-31T06:06:19;98062.63;;;-1.00;86.38
61906;BME280;47863;55.766;37.672;2023-01-31T06:08:45;98071.22;;;-0.98;86.31
61906;BME280;47863;55.766;37.672;2023-01-31T06:11:12;98068.31;;;-0.95;86.27
61906;BME280;47863;55.766;37.672;2023-01-31T06:13:39;98070.44;;;-0.89;86.39
61906;BME280;47863;55.766;37.672;2023-01-31T06:16:08;98076.66;;;-0.90;86.01
61906;BME280;47863;55.766;37.672;2023-01-31T06:18:34;98075.13;;;-0.92;85.96
61906;BME280;47863;55.766;37.672;2023-01-31T06:21:00;98082.03;;;-0.91;85.92
61906;BME280;47863;55.766;37.672;2023-01-31T06:23:26;98073.19;;;-0.90;86.31
61906;BME280;47863;55.766;37.672;2023-01-31T06:25:52;98078.19;;;-0.87;85.98
61906;BME280;47863;55.766;37.672;2023-01-31T06:28:19;98082.50;;;-0.86;86.28
61906;BME280;47863;55.766;37.672;2023-01-31T06:30:46;98079.03;;;-0.87;86.14
61906;BME280;47863;55.766;37.672;2023-01-31T06:33:12;98061.25;;;-1.04;86.36
61906;BME280;47863;55.766;37.672;2023-01-31T06:35:38;98089.97;;;-0.82;86.18
61906;BME280;47863;55.766;37.672;2023-01-31T06:38:04;98099.53;;;-0.81;86.50
61906;BME280;47863;55.766;37.672;2023-01-31T06:40:30;98056.56;;;-1.01;86.48
61906;BME280;47863;55.766;37.672;2023-01-31T06:42:57;98092.53;;;-0.70;85.84
61906;BME280;47863;55.766;37.672;2023-01-31T06:45:22;98075.88;;;-0.81;85.97
61906;BME280;47863;55.766;37.672;2023-01-31T06:47:48;98097.78;;;-0.70;86.64
61906;BME280;47863;55.766;37.672;2023-01-31T06:50:13;98100.00;;;-0.66;86.12
61906;BME280;47863;55.766;37.672;2023-01-31T06:52:39;98055.69;;;-1.01;85.73
61906;BME280;47863;55.766;37.672;2023-01-31T06:55:06;98124.66;;;-0.67;85.98
61906;BME280;47863;55.766;37.672;2023-01-31T06:57:31;98118.13;;;-0.72;85.84
61906;BME280;47863;55.766;37.672;2023-01-31T06:59:57;98125.59;;;-0.68;85.60
61906;BME280;47863;55.766;37.672;2023-01-31T07:02:23;98096.16;;;-0.92;85.54
61906;BME280;47863;55.766;37.672;2023-01-31T07:04:50;98118.69;;;-0.69;85.65
61906;BME280;47863;55.766;37.672;2023-01-31T07:07:15;98120.16;;;-0.76;85.32
61906;BME280;47863;55.766;37.672;2023-01-31T07:09:41;98088.97;;;-0.90;85.62
61906;BME280;47863;55.766;37.672;2023-01-31T07:12:07;98114.34;;;-0.80;85.74
61906;BME280;47863;55.766;37.672;2023-01-31T07:14:32;98089.09;;;-0.92;85.96
61906;BME280;47863;55.766;37.672;2023-01-31T07:16:58;98095.94;;;-0.80;85.02
61906;BME280;47863;55.766;37.672;2023-01-31T07:19:23;98120.47;;;-0.69;84.97
61906;BME280;47863;55.766;37.672;2023-01-31T07:21:49;98135.59;;;-0.62;84.84
61906;BME280;47863;55.766;37.672;2023-01-31T07:24:15;98138.50;;;-0.65;85.14
61906;BME280;47863;55.766;37.672;2023-01-31T07:26:41;98143.88;;;-0.66;85.58
61906;BME280;47863;55.766;37.672;2023-01-31T07:29:07;98148.75;;;-0.62;85.28
61906;BME280;47863;55.766;37.672;2023-01-31T07:31:32;98151.25;;;-0.60;84.96
61906;BME280;47863;55.766;37.672;2023-01-31T07:33:58;98129.03;;;-0.77;85.17
61906;BME280;47863;55.766;37.672;2023-01-31T07:36:24;98142.25;;;-0.57;85.01
61906;BME280;47863;55.766;37.672;2023-01-31T07:38:55;98176.31;;;-0.56;84.97
61906;BME280;47863;55.766;37.672;2023-01-31T07:41:22;98145.41;;;-0.64;84.76
61906;BME280;47863;55.766;37.672;2023-01-31T07:43:48;98110.31;;;-0.84;84.96
61906;BME280;47863;55.766;37.672;2023-01-31T07:46:14;98129.03;;;-0.77;84.98
61906;BME280;47863;55.766;37.672;2023-01-31T07:48:40;98127.16;;;-0.65;85.18
61906;BME280;47863;55.766;37.672;2023-01-31T07:51:06;98160.00;;;-0.50;84.72
61906;BME280;47863;55.766;37.672;2023-01-31T07:53:35;98165.97;;;-0.48;84.76
61906;BME280;47863;55.766;37.672;2023-01-31T07:58:33;98172.78;;;-0.45;84.64
61906;BME280;47863;55.766;37.672;2023-01-31T08:00:59;98157.09;;;-0.56;84.83
61906;BME280;47863;55.766;37.672;2023-01-31T08:03:43;98167.91;;;-0.50;85.11
61906;BME280;47863;55.766;37.672;2023-01-31T08:06:10;98183.31;;;-0.45;85.03
61906;BME280;47863;55.766;37.672;2023-01-31T08:08:36;98124.09;;;-0.70;84.97
61906;BME280;47863;55.766;37.672;2023-01-31T08:11:03;98160.19;;;-0.51;84.21
61906;BME280;47863;55.766;37.672;2023-01-31T08:13:32;98167.53;;;-0.45;84.14
61906;BME280;47863;55.766;37.672;2023-01-31T08:16:00;98168.50;;;-0.46;84.59
61906;BME280;47863;55.766;37.672;2023-01-31T08:18:25;98184.16;;;-0.45;84.90
61906;BME280;47863;55.766;37.672;2023-01-31T08:20:51;98178.47;;;-0.40;84.77
61906;BME280;47863;55.766;37.672;2023-01-31T08:23:16;98180.78;;;-0.26;84.06
61906;BME280;47863;55.766;37.672;2023-01-31T08:25:42;98157.25;;;-0.48;83.82
61906;BME280;47863;55.766;37.672;2023-01-31T08:28:08;98197.53;;;-0.27;84.44
61906;BME280;47863;55.766;37.672;2023-01-31T08:30:37;98195.84;;;-0.28;84.75
61906;BME280;47863;55.766;37.672;2023-01-31T08:33:03;98194.34;;;-0.21;84.39
61906;BME280;47863;55.766;37.672;2023-01-31T08:35:28;98167.78;;;-0.48;84.28
61906;BME280;47863;55.766;37.672;2023-01-31T08:37:54;98209.19;;;-0.19;84.04
61906;BME280;47863;55.766;37.672;2023-01-31T08:40:19;98203.94;;;-0.19;84.15
61906;BME280;47863;55.766;37.672;2023-01-31T08:42:56;98163.44;;;-0.28;84.29
61906;BME280;47863;55.766;37.672;2023-01-31T08:45:22;98177.00;;;-0.33;83.42
61906;BME280;47863;55.766;37.672;2023-01-31T08:47:54;98196.59;;;-0.16;83.63
61906;BME280;47863;55.766;37.672;2023-01-31T08:50:21;98199.78;;;-0.12;83.77
61906;BME280;47863;55.766;37.672;2023-01-31T08:52:57;98194.41;;;-0.11;83.99
61906;BME280;47863;55.766;37.672;2023-01-31T08:55:25;98169.28;;;-0.25;83.98
61906;BME280;47863;55.766;37.672;2023-01-31T08:57:51;98202.91;;;0.03;83.89
61906;BME280;47863;55.766;37.672;2023-01-31T09:00:18;98205.13;;;0.07;83.78
61906;BME280;47863;55.766;37.672;2023-01-31T09:02:50;98195.88;;;0.13;83.62
61906;BME280;47863;55.766;37.672;2023-01-31T09:05:15;98132.59;;;-0.16;83.61
61906;BME280;47863;55.766;37.672;2023-01-31T09:07:41;98188.81;;;0.23;83.36
61906;BME280;47863;55.766;37.672;2023-01-31T09:10:07;98202.69;;;0.25;83.07
61906;BME280;47863;55.766;37.672;2023-01-31T09:12:33;98203.50;;;0.26;82.35
61906;BME280;47863;55.766;37.672;2023-01-31T09:14:58;98148.41;;;-0.07;82.77
61906;BME280;47863;55.766;37.672;2023-01-31T09:17:24;98196.31;;;0.18;82.21
61906;BME280;47863;55.766;37.672;2023-01-31T09:19:49;98202.28;;;0.20;82.38
61906;BME280;47863;55.766;37.672;2023-01-31T09:22:15;98190.16;;;0.08;82.51
61906;BME280;47863;55.766;37.672;2023-01-31T09:24:41;98212.09;;;0.18;82.42
61906;BME280;47863;55.766;37.672;2023-01-31T09:27:06;98197.13;;;0.18;82.56
61906;BME280;47863;55.766;37.672;2023-01-31T09:29:32;98208.78;;;0.16;82.85
61906;BME280;47863;55.766;37.672;2023-01-31T09:31:57;98201.03;;;0.24;83.11
61906;BME280;47863;55.766;37.672;2023-01-31T09:34:23;98164.00;;;0.06;82.21
61906;BME280;47863;55.766;37.672;2023-01-31T09:36:48;98196.31;;;0.37;82.42
61906;BME280;47863;55.766;37.672;2023-01-31T09:39:14;98185.78;;;0.37;81.77
61906;BME280;47863;55.766;37.672;2023-01-31T09:41:49;98194.28;;;0.51;81.74
61906;BME280;47863;55.766;37.672;2023-01-31T09:46:49;98193.59;;;0.58;82.07
61906;BME280;47863;55.766;37.672;2023-01-31T09:49:29;98194.84;;;0.64;81.90
61906;BME280;47863;55.766;37.672;2023-01-31T09:52:01;98198.06;;;0.68;81.87
61906;BME280;47863;55.766;37.672;2023-01-31T09:54:31;98195.00;;;0.72;81.70
61906;BME280;47863;55.766;37.672;2023-01-31T09:57:58;98186.13;;;0.73;81.30
61906;BME280;47863;55.766;37.672;2023-01-31T10:00:32;98199.72;;;0.78;81.78
61906;BME280;47863;55.766;37.672;2023-01-31T10:11:43;98201.38;;;0.79;80.54
61906;BME280;47863;55.766;37.672;2023-01-31T10:14:32;98201.38;;;0.79;80.95
61906;BME280;47863;55.766;37.672;2023-01-31T10:17:10;98127.00;;;0.27;80.13
61906;BME280;47863;55.766;37.672;2023-01-31T10:22:27;98168.34;;;0.46;80.30
61906;BME280;47863;55.766;37.672;2023-01-31T10:24:58;98206.22;;;0.74;80.11
61906;BME280;47863;55.766;37.672;2023-01-31T10:27:44;98212.75;;;0.80;80.12
61906;BME280;47863;55.766;37.672;2023-01-31T10:30:24;98225.25;;;0.88;79.43
61906;BME280;47863;55.766;37.672;2023-01-31T10:33:03;98196.81;;;0.72;79.33
61906;BME280;47863;55.766;37.672;2023-01-31T10:35:39;98225.50;;;0.85;79.11
61906;BME280;47863;55.766;37.672;2023-01-31T10:38:29;98224.44;;;0.87;79.80
61906;BME280;47863;55.766;37.672;2023-01-31T10:41:12;98226.38;;;0.85;79.49
61906;BME280;47863;55.766;37.672;2023-01-31T10:43:51;98222.88;;;0.85;79.00
61906;BME280;47863;55.766;37.672;2023-01-31T10:46:21;98226.22;;;0.87;79.36
61906;BME280;47863;55.766;37.672;2023-01-31T10:48:46;98226.06;;;0.88;79.30
61906;BME280;47863;55.766;37.672;2023-01-31T10:56:38;98218.16;;;0.88;78.99
61906;BME280;47863;55.766;37.672;2023-01-31T10:59:55;98178.34;;;0.72;79.33
61906;BME280;47863;55.766;37.672;2023-01-31T11:01:56;98213.31;;;1.03;79.39
61906;BME280;47863;55.766;37.672;2023-01-31T11:06:57;98198.59;;;1.01;78.45
61906;BME280;47863;55.766;37.672;2023-01-31T11:09:23;98221.06;;;1.14;78.89
61906;BME280;47863;55.766;37.672;2023-01-31T11:11:57;98236.63;;;1.17;78.94
61906;BME280;47863;55.766;37.672;2023-01-31T11:14:23;98228.72;;;1.17;78.30
61906;BME280;47863;55.766;37.672;2023-01-31T11:16:56;98231.50;;;1.16;79.30
61906;BME280;47863;55.766;37.672;2023-01-31T11:21:54;98197.09;;;0.88;78.49
61906;BME280;47863;55.766;37.672;2023-01-31T11:24:22;98244.41;;;1.09;78.03
61906;BME280;47863;55.766;37.672;2023-01-31T11:27:01;98234.97;;;1.07;77.92
61906;BME280;47863;55.766;37.672;2023-01-31T11:29:37;98201.38;;;0.79;78.28
61906;BME280;47863;55.766;37.672;2023-01-31T11:32:10;98234.41;;;0.93;78.26
61906;BME280;47863;55.766;37.672;2023-01-31T11:34:54;98230.22;;;0.91;78.43
61906;BME280;47863;55.766;37.672;2023-01-31T11:37:20;98215.81;;;0.85;78.04
61906;BME280;47863;55.766;37.672;2023-01-31T11:39:56;98237.75;;;0.86;78.57
61906;BME280;47863;55.766;37.672;2023-01-31T11:42:21;98231.34;;;0.88;78.41
61906;BME280;47863;55.766;37.672;2023-01-31T11:45:03;98238.31;;;0.89;78.47
61906;BME280;47863;55.766;37.672;2023-01-31T11:47:37;98239.38;;;0.87;78.83
61906;BME280;47863;55.766;37.672;2023-01-31T11:50:04;98236.34;;;0.91;78.85
61906;BME280;47863;55.766;37.672;2023-01-31T11:52:33;98192.34;;;0.63;78.70
61906;BME280;47863;55.766;37.672;2023-01-31T11:55:15;98233.44;;;0.94;79.18
61906;BME280;47863;55.766;37.672;2023-01-31T11:57:42;98227.88;;;0.88;78.61
61906;BME280;47863;55.766;37.672;2023-01-31T12:00:24;98241.06;;;0.97;78.12
61906;BME280;47863;55.766;37.672;2023-01-31T12:05:35;98264.38;;;0.92;78.18
61906;BME280;47863;55.766;37.672;2023-01-31T12:08:01;98233.84;;;0.80;78.34
61906;BME280;47863;55.766;37.672;2023-01-31T12:10:41;98241.88;;;0.78;78.67
61906;BME280;47863;55.766;37.672;2023-01-31T12:13:27;98236.91;;;0.75;78.43
61906;BME280;47863;55.766;37.672;2023-01-31T12:15:58;98186.66;;;0.38;78.72
61906;BME280;47863;55.766;37.672;2023-01-31T12:18:28;98264.09;;;0.76;78.74
61906;BME280;47863;55.766;37.672;2023-01-31T12:21:09;98197.88;;;0.40;78.53
61906;BME280;47863;55.766;37.672;2023-01-31T12:26:47;98263.38;;;0.74;78.77
61906;BME280;47863;55.766;37.672;2023-01-31T12:29:44;98263.25;;;0.66;78.86
61906;BME280;47863;55.766;37.672;2023-01-31T12:35:47;98278.19;;;0.65;79.20
61906;BME280;47863;55.766;37.672;2023-01-31T12:41:24;98266.97;;;0.63;79.74
61906;BME280;47863;55.766;37.672;2023-01-31T12:46:44;98267.81;;;0.64;79.49
61906;BME280;47863;55.766;37.672;2023-01-31T12:49:26;98277.38;;;0.65;79.79
61906;BME280;47863;55.766;37.672;2023-01-31T12:55:15;98267.81;;;0.64;79.41
61906;BME280;47863;55.766;37.672;2023-01-31T12:58:02;98281.38;;;0.59;79.63
61906;BME280;47863;55.766;37.672;2023-01-31T13:06:21;98278.75;;;0.59;79.90
61906;BME280;47863;55.766;37.672;2023-01-31T13:09:09;98285.13;;;0.56;79.88
61906;BME280;47863;55.766;37.672;2023-01-31T13:14:19;98240.53;;;0.24;80.07
61906;BME280;47863;55.766;37.672;2023-01-31T13:16:50;98285.78;;;0.49;79.89
61906;BME280;47863;55.766;37.672;2023-01-31T13:19:19;98282.03;;;0.51;80.36
61906;BME280;47863;55.766;37.672;2023-01-31T13:21:51;98277.06;;;0.48;80.23
61906;BME280;47863;55.766;37.672;2023-01-31T13:24:26;98262.06;;;0.39;80.40
61906;BME280;47863;55.766;37.672;2023-01-31T13:26:58;98268.59;;;0.45;80.82
61906;BME280;47863;55.766;37.672;2023-01-31T13:29:34;98276.06;;;0.49;80.47
61906;BME280;47863;55.766;37.672;2023-01-31T13:32:09;98254.00;;;0.31;80.17
61906;BME280;47863;55.766;37.672;2023-01-31T13:37:10;98256.72;;;0.19;80.83
61906;BME280;47863;55.766;37.672;2023-01-31T13:39:48;98262.44;;;0.25;81.00
61906;BME280;47863;55.766;37.672;2023-01-31T13:42:15;98286.03;;;0.36;80.91
61906;BME280;47863;55.766;37.672;2023-01-31T13:44:42;98292.53;;;0.32;81.21
61906;BME280;47863;55.766;37.672;2023-01-31T13:47:19;98311.41;;;0.37;80.79
61906;BME280;47863;55.766;37.672;2023-01-31T13:50:00;98300.25;;;0.24;80.64
61906;BME280;47863;55.766;37.672;2023-01-31T13:52:32;98280.94;;;0.13;80.22
61906;BME280;47863;55.766;37.672;2023-01-31T13:55:00;98330.41;;;0.41;80.81
61906;BME280;47863;55.766;37.672;2023-01-31T13:57:32;98335.56;;;0.42;80.78
61906;BME280;47863;55.766;37.672;2023-01-31T14:00:49;98345.81;;;0.45;80.60
61906;BME280;47863;55.766;37.672;2023-01-31T14:03:04;98329.19;;;0.45;80.62
61906;BME280;47863;55.766;37.672;2023-01-31T14:10:54;98342.44;;;0.64;79.57
61906;BME280;47863;55.766;37.672;2023-01-31T14:13:25;98339.34;;;0.59;79.47
61906;BME280;47863;55.766;37.672;2023-01-31T14:15:53;98330.06;;;0.65;79.43
61906;BME280;47863;55.766;37.672;2023-01-31T14:23:57;98340.88;;;0.52;80.11
61906;BME280;47863;55.766;37.672;2023-01-31T14:29:14;98356.84;;;0.60;79.88
61906;BME280;47863;55.766;37.672;2023-01-31T14:31:45;98347.13;;;0.61;79.51
61906;BME280;47863;55.766;37.672;2023-01-31T14:34:15;98341.97;;;0.59;nan
61906;BME280;47863;55.766;37.672;2023-01-31T14:39:55;98357.66;;;0.61;79.84
61906;BME280;47863;55.766;37.672;2023-01-31T14:48:13;98361.28;;;0.59;79.58
61906;BME280;47863;55.766;37.672;2023-01-31T14:50:55;98360.31;;;0.61;79.63
61906;BME280;47863;55.766;37.672;2023-01-31T14:58:21;98338.44;;;0.39;79.46
61906;BME280;47863;55.766;37.672;2023-01-31T15:00:55;98333.16;;;0.39;79.97
61906;BME280;47863;55.766;37.672;2023-01-31T15:03:28;98362.50;;;0.55;80.18
61906;BME280;47863;55.766;37.672;2023-01-31T15:08:48;98349.91;;;0.28;80.80
61906;BME280;47863;55.766;37.672;2023-01-31T15:11:43;98373.53;;;0.39;81.07
61906;BME280;47863;55.766;37.672;2023-01-31T15:17:11;98343.81;;;0.28;80.85